• Join FlightAware (Why Join?)
  • Login
  • US Flag 
04:56PM EDT


 

Airport Tracker/Info


-or-


 

Live Flight TrackerFlight Track Log ✈ THY1074 ✈ 17-Jul-2013 ✈ LATI / TIA - LTBA / IST

Flight Track Log - Related Links

Times and Time Zones

All times are in EDT time to prevent confusion due to time zone crossing. See the THY1074 flight status page for this flight to view local times or setup timezone preferences in your user account.

Time Position Orientation Groundspeed Altitude Reporting Facility
EDT Latitude Longitude Course Direction KTS MPH feet Rate Location/Type
03:57AM 41.3889 21.3698 91° East  Level Estimated
03:58AM 41.3860 21.4966 92° East  Level Estimated
03:59AM 41.3829 21.6234 92° East  Level Estimated
04:00AM 41.3796 21.7502 92° East  Level Estimated
04:01AM 41.3762 21.8769 92° East  Level Estimated
04:02AM 41.3727 22.0037 92° East  Level Estimated
04:03AM 41.3691 22.1304 92° East  Level Estimated
04:04AM 41.3653 22.2572 92° East  Level Estimated
04:05AM 41.3613 22.3839 92° East  Level Estimated
04:06AM 41.3573 22.5105 92° East  Level Estimated
04:07AM 41.3531 22.6372 92° East  Level Estimated
04:08AM 41.3487 22.7639 93° East  Level Estimated
04:09AM 41.3442 22.8905 93° East  Level Estimated
04:10AM 41.3396 23.0172 93° East  Level Estimated
04:11AM 41.3348 23.1438 93° East  Level Estimated
04:12AM 41.3299 23.2703 93° East  Level Estimated
04:13AM 41.3248 23.3969 93° East  Level Estimated
04:14AM 41.3197 23.5235 93° East  Level Estimated
04:15AM 41.3144 23.6500 93° East  Level Estimated
04:16AM 41.3089 23.7765 93° East  Level Estimated
04:17AM 41.3033 23.9030 93° East  Level Estimated
04:18AM 41.2976 24.0295 93° East  Level Estimated
04:19AM 41.2917 24.1559 93° East  Level Estimated
04:20AM 41.2857 24.2823 94° East  Level Estimated
04:21AM 41.2795 24.4087 94° East  Level Estimated
04:22AM 41.2732 24.5351 94° East  Level Estimated
04:23AM 41.2668 24.6614 94° East  Level Estimated
04:24AM 41.2602 24.7878 94° East  Level Estimated
04:25AM 41.2535 24.9140 94° East  Level Estimated
04:26AM 41.2467 25.0403 94° East  Level Estimated
04:27AM 41.2397 25.1665 94° East  Level Estimated
04:28AM 41.2326 25.2928 94° East  Level Estimated
04:29AM 41.2253 25.4189 94° East  Level Estimated
04:30AM 41.2179 25.5451 94° East  Level Estimated
04:31AM 41.2104 25.6712 94° East  Level Estimated
04:32AM 41.2027 25.7973 95° East  Level Estimated
04:33AM 41.1949 25.9234 95° East  Level Estimated
04:34AM 41.1870 26.0494 95° East  Level Estimated
04:35AM 41.1789 26.1755 95° East  Level Estimated
04:36AM 41.1707 26.3014 95° East  Level Estimated
04:37AM 41.1623 26.4274 95° East  Level Estimated
04:38AM 41.1538 26.5533 95° East  Level Estimated
04:39AM 41.1452 26.6792 95° East  Level Estimated
04:40AM 41.1364 26.8050 95° East  Level Estimated
04:41AM 41.1275 26.9308 95° East  Level Estimated
04:42AM 41.1185 27.0566 95° East  Level Estimated
04:43AM 41.1093 27.1824 95° East  Level Estimated
04:44AM 41.1000 27.3081 96° East  Level Estimated
04:45AM 41.0905 27.4337 96° East  Level Estimated
04:46AM 41.0809 27.5594 96° East  Level Estimated
04:47AM 41.0712 27.6850 96° East  Level Estimated
04:48AM 41.0613 27.8105 96° East  Level Estimated
04:49AM 41.0513 27.9361 96° East  Level Estimated
04:50AM 41.0412 28.0616 96° East  Level Estimated
04:51AM 41.0309 28.1870 96° East  Level Estimated
04:52AM 41.0205 28.3124 96° East  Level Estimated
04:53AM 41.0100 28.4378 96° East  Level Estimated
04:54AM 40.9993 28.5631 96° East  Level Estimated
04:55AM 40.9885 28.6884 96° East  Level Estimated
04:56AM 40.9776 28.8136 97° East  Level Estimated
04:57AM 40.9769 28.8211 97° East  Level Estimated
04:58AM 40.9769 28.8211 21° North  Level Estimated
04:59AM 40.9769 28.8211 21° North  Level Estimated
05:00AM 40.9769 28.8211 21° North  Level Estimated
05:01AM 40.9769 28.8211 21° North  Level Estimated
05:02AM 40.9769 28.8211 21° North  Level Estimated
05:03AM 40.9769 28.8211 21° North  Level Estimated
05:04AM 40.9769 28.8211 21° North  Level Estimated
05:05AM 40.9769 28.8211 21° North  Level Estimated
05:06AM 40.9769 28.8211 21° North  Level Estimated
05:07AM 40.9769 28.8211 21° North  Level Estimated
05:08AM 40.9769 28.8211 21° North  Level Estimated
05:09AM 40.9769 28.8211 21° North  Level Estimated
05:10AM 40.9769 28.8211 21° North  Level Estimated
05:11AM 40.9769 28.8211 21° North  Level Estimated
05:12AM 40.9769 28.8211 21° North  Level Estimated